createdAt,value
2022-11-05T00:00:29.655Z,13.39
2022-11-05T00:03:16.066Z,13.24
2022-11-05T00:06:07.276Z,13.16
2022-11-05T00:08:53.666Z,13.15
2022-11-05T00:11:41.052Z,13.11
2022-11-05T00:14:26.596Z,13.18
2022-11-05T00:16:53.908Z,13.12
2022-11-05T00:19:21.042Z,13.12
2022-11-05T00:22:06.843Z,13.09
2022-11-05T00:24:52.541Z,13.31
2022-11-05T00:27:20.050Z,13.26
2022-11-05T00:29:47.291Z,13.41
2022-11-05T00:32:14.677Z,13.38
2022-11-05T00:34:42.108Z,13.51
2022-11-05T00:37:09.408Z,13.46
2022-11-05T00:39:36.666Z,13.51
2022-11-05T00:42:22.649Z,13.39
2022-11-05T00:45:02.286Z,13.37
2022-11-05T00:47:50.480Z,13.30
2022-11-05T00:50:19.337Z,13.56
2022-11-05T00:52:57.803Z,13.59
2022-11-05T00:55:34.814Z,13.35
2022-11-05T00:58:03.682Z,13.55
2022-11-05T01:00:33.364Z,13.65
2022-11-05T01:03:03.740Z,13.71
2022-11-05T01:05:33.000Z,13.75
2022-11-05T01:08:01.507Z,13.77
2022-11-05T01:10:30.125Z,13.54
2022-11-05T01:12:57.671Z,13.65
2022-11-05T01:15:25.331Z,13.72
2022-11-05T01:17:52.607Z,13.73
2022-11-05T01:20:19.994Z,13.65
2022-11-05T01:22:47.208Z,13.74
2022-11-05T01:25:14.813Z,13.77
2022-11-05T01:27:42.361Z,13.80
2022-11-05T01:30:10.220Z,13.71
2022-11-05T01:32:38.365Z,13.76
2022-11-05T01:35:07.517Z,13.55
2022-11-05T01:37:35.785Z,13.62
2022-11-05T01:40:04.041Z,13.57
2022-11-05T01:42:32.529Z,13.66
2022-11-05T01:45:12.506Z,13.68
2022-11-05T01:47:57.942Z,13.54
2022-11-05T01:50:40.762Z,13.62
2022-11-05T01:53:38.450Z,13.60
2022-11-05T01:56:15.248Z,13.58
2022-11-05T01:59:01.219Z,13.60
2022-11-05T02:01:28.807Z,13.59
2022-11-05T02:04:02.375Z,13.55
2022-11-05T02:06:33.678Z,13.60
2022-11-05T02:09:43.984Z,13.58
2022-11-05T02:12:13.800Z,13.57
2022-11-05T02:14:41.130Z,13.55
2022-11-05T02:17:28.561Z,13.46
2022-11-05T02:19:56.805Z,13.39
2022-11-05T02:23:01.163Z,13.39
2022-11-05T02:26:05.713Z,13.38
2022-11-05T02:28:52.314Z,13.22
2022-11-05T02:31:58.203Z,13.23
2022-11-05T02:34:45.427Z,13.21
2022-11-05T02:37:15.499Z,13.16
2022-11-05T02:40:01.601Z,13.17
2022-11-05T02:42:44.641Z,13.18
2022-11-05T02:46:05.833Z,13.16
2022-11-05T02:48:59.297Z,13.07
2022-11-05T02:51:39.491Z,13.04
2022-11-05T02:54:14.675Z,12.91
2022-11-05T02:56:46.561Z,12.94
2022-11-05T02:59:13.999Z,12.93
2022-11-05T03:01:44.529Z,12.93
2022-11-05T03:04:16.657Z,12.89
2022-11-05T03:07:00.238Z,12.93
2022-11-05T03:09:49.110Z,12.93
2022-11-05T03:12:28.764Z,12.91
2022-11-05T03:15:26.678Z,12.85
2022-11-05T03:18:37.032Z,12.76
2022-11-05T03:21:17.342Z,12.75
2022-11-05T03:23:47.927Z,12.66
2022-11-05T03:26:36.052Z,12.76
2022-11-05T03:29:08.932Z,12.75
2022-11-05T03:31:38.714Z,12.73
2022-11-05T03:34:09.550Z,12.73
2022-11-05T03:36:53.963Z,12.69
2022-11-05T03:39:29.561Z,12.74
2022-11-05T03:41:58.901Z,12.79
2022-11-05T03:44:31.957Z,12.72
2022-11-05T03:47:08.316Z,12.76
2022-11-05T03:49:40.812Z,12.75
2022-11-05T03:52:14.455Z,12.68
2022-11-05T03:54:42.298Z,12.74
2022-11-05T03:57:18.637Z,12.76
2022-11-05T03:59:49.549Z,12.78
2022-11-05T04:02:19.565Z,12.79
2022-11-05T04:04:47.544Z,12.77
2022-11-05T04:07:33.523Z,12.76
2022-11-05T04:10:19.327Z,12.84
2022-11-05T04:13:05.156Z,12.82
2022-11-05T04:15:52.327Z,12.74
2022-11-05T04:18:19.822Z,12.74
2022-11-05T04:21:05.504Z,12.70
2022-11-05T04:23:51.760Z,12.71
2022-11-05T04:26:23.598Z,12.71
2022-11-05T04:29:10.493Z,12.71
2022-11-05T04:31:38.717Z,12.52
2022-11-05T04:34:06.437Z,12.54
2022-11-05T04:36:34.260Z,12.52
2022-11-05T04:39:01.758Z,12.39
2022-11-05T04:41:29.248Z,12.39
2022-11-05T04:43:56.588Z,12.34
2022-11-05T04:46:23.843Z,12.44
2022-11-05T04:48:51.406Z,12.27
2022-11-05T04:51:18.662Z,12.26
2022-11-05T04:53:46.083Z,12.43
2022-11-05T04:56:21.811Z,12.37
2022-11-05T04:58:49.811Z,12.28
2022-11-05T05:01:20.792Z,12.21
2022-11-05T05:03:52.220Z,12.27
2022-11-05T05:06:20.420Z,12.34
2022-11-05T05:08:48.986Z,12.37
2022-11-05T05:11:19.666Z,12.42
2022-11-05T05:13:47.751Z,12.44
2022-11-05T05:16:22.414Z,12.48
2022-11-05T05:18:50.646Z,12.48
2022-11-05T05:21:38.083Z,12.33
2022-11-05T05:24:09.141Z,12.40
2022-11-05T05:26:37.984Z,12.40
2022-11-05T05:29:05.933Z,12.48
2022-11-05T05:31:34.555Z,12.41
2022-11-05T05:34:02.056Z,12.53
2022-11-05T05:36:29.560Z,12.60
2022-11-05T05:38:57.199Z,12.65
2022-11-05T05:41:24.880Z,12.66
2022-11-05T05:43:52.621Z,12.70
2022-11-05T05:46:19.989Z,12.76
2022-11-05T05:48:52.133Z,12.75
2022-11-05T05:51:20.106Z,12.75
2022-11-05T05:53:47.525Z,12.70
2022-11-05T05:56:15.363Z,12.80
2022-11-05T05:58:42.651Z,12.80
2022-11-05T06:01:18.271Z,12.70
2022-11-05T06:03:46.449Z,12.75
2022-11-05T06:06:14.987Z,12.73
2022-11-05T06:08:43.186Z,12.67
2022-11-05T06:11:10.455Z,12.68
2022-11-05T06:13:38.122Z,12.74
2022-11-05T06:16:08.142Z,12.80
2022-11-05T06:18:36.240Z,12.81
2022-11-05T06:21:05.560Z,12.89
2022-11-05T06:23:34.306Z,12.93
2022-11-05T06:26:02.892Z,12.98
2022-11-05T06:28:30.504Z,12.92
2022-11-05T06:30:58.493Z,12.94
2022-11-05T06:33:27.022Z,13.03
2022-11-05T06:35:54.646Z,13.05
2022-11-05T06:38:21.847Z,13.11
2022-11-05T06:40:49.201Z,13.18
2022-11-05T06:43:16.412Z,13.23
2022-11-05T06:45:44.086Z,13.20
2022-11-05T06:48:11.459Z,13.22
2022-11-05T06:50:38.761Z,13.21
2022-11-05T06:53:06.175Z,13.12
2022-11-05T06:55:33.677Z,13.11
2022-11-05T06:58:01.124Z,13.16
2022-11-05T07:00:29.170Z,13.32
2022-11-05T07:03:07.213Z,13.42
2022-11-05T07:05:37.494Z,13.49
2022-11-05T07:08:04.762Z,13.51
2022-11-05T07:10:32.120Z,13.60
2022-11-05T07:13:02.527Z,13.73
2022-11-05T07:15:33.860Z,13.72
2022-11-05T07:18:02.298Z,13.62
2022-11-05T07:20:33.962Z,13.61
2022-11-05T07:23:04.130Z,13.54
2022-11-05T07:25:33.432Z,13.48
2022-11-05T07:28:01.455Z,13.45
2022-11-05T07:30:29.930Z,13.65
2022-11-05T07:32:57.280Z,13.73
2022-11-05T07:35:25.486Z,13.79
2022-11-05T07:37:54.292Z,13.84
2022-11-05T07:40:22.922Z,13.90
2022-11-05T07:42:52.939Z,13.92
2022-11-05T07:45:20.656Z,14.15
2022-11-05T07:47:50.774Z,14.24
2022-11-05T07:50:20.394Z,14.31
2022-11-05T07:52:50.989Z,14.47
2022-11-05T07:55:19.719Z,14.54
2022-11-05T07:57:49.240Z,14.61
2022-11-05T08:00:21.978Z,14.41
2022-11-05T08:03:09.521Z,14.69
2022-11-05T08:05:39.617Z,14.70
2022-11-05T08:08:08.602Z,14.81
2022-11-05T08:10:36.981Z,14.89
2022-11-05T08:13:05.912Z,14.96
2022-11-05T08:15:33.876Z,15.14
2022-11-05T08:18:03.378Z,15.25
2022-11-05T08:20:31.704Z,15.29
2022-11-05T08:22:59.223Z,15.37
2022-11-05T08:25:26.984Z,15.59
2022-11-05T08:28:06.723Z,15.63
2022-11-05T08:30:35.286Z,15.45
2022-11-05T08:33:08.936Z,15.76
2022-11-05T08:35:38.116Z,15.63
2022-11-05T08:38:07.009Z,15.66
2022-11-05T08:40:36.295Z,15.84
2022-11-05T08:43:05.616Z,15.87
2022-11-05T08:45:33.657Z,15.94
2022-11-05T08:48:02.725Z,15.90
2022-11-05T08:50:30.323Z,16.03
2022-11-05T08:52:58.070Z,15.81
2022-11-05T08:55:26.166Z,16.05
2022-11-05T08:58:01.634Z,16.07
2022-11-05T09:00:32.073Z,16.11
2022-11-05T09:03:01.350Z,16.14
2022-11-05T09:05:29.830Z,15.97
2022-11-05T09:08:00.890Z,16.00
2022-11-05T09:10:29.062Z,15.96
2022-11-05T09:12:56.536Z,16.05
2022-11-05T09:15:24.694Z,15.94
2022-11-05T09:17:51.997Z,15.92
2022-11-05T09:20:19.694Z,16.06
2022-11-05T09:22:47.016Z,16.06
2022-11-05T09:25:15.954Z,16.09
2022-11-05T09:27:43.891Z,16.14
2022-11-05T09:30:12.523Z,16.13
2022-11-05T09:32:39.912Z,16.12
2022-11-05T09:35:08.043Z,16.15
2022-11-05T09:37:37.804Z,16.16
2022-11-05T09:40:05.831Z,16.20
2022-11-05T09:42:40.068Z,16.24
2022-11-05T09:45:18.987Z,16.21
2022-11-05T09:47:52.357Z,16.23
2022-11-05T09:50:26.034Z,16.29
2022-11-05T09:52:53.285Z,16.21
2022-11-05T09:55:27.212Z,16.36
2022-11-05T09:57:59.238Z,16.53
2022-11-05T10:00:27.293Z,16.50
2022-11-05T10:03:04.274Z,16.49
2022-11-05T10:05:34.240Z,16.58
2022-11-05T10:08:17.328Z,16.66
2022-11-05T10:11:02.639Z,16.67
2022-11-05T10:13:37.381Z,16.70
2022-11-05T10:16:22.111Z,16.72
2022-11-05T10:18:57.507Z,16.73
2022-11-05T10:21:51.307Z,16.70
2022-11-05T10:24:15.920Z,16.68
2022-11-05T10:26:46.752Z,16.60
2022-11-05T10:29:20.553Z,16.65
2022-11-05T10:31:48.113Z,16.70
2022-11-05T10:34:17.919Z,16.59
2022-11-05T10:36:45.166Z,16.82
2022-11-05T10:39:15.471Z,16.86
2022-11-05T10:42:03.100Z,16.89
2022-11-05T10:44:39.367Z,16.87
2022-11-05T10:47:33.689Z,16.90
2022-11-05T10:50:04.023Z,17.20
2022-11-05T10:52:51.800Z,17.71
2022-11-05T10:55:26.084Z,17.62
2022-11-05T10:57:53.734Z,17.57
2022-11-05T11:00:23.753Z,17.51
2022-11-05T11:02:58.845Z,17.53
2022-11-05T11:05:32.840Z,17.46
2022-11-05T11:08:06.795Z,17.42
2022-11-05T11:10:42.299Z,17.45
2022-11-05T11:13:48.436Z,17.49
2022-11-05T11:16:20.548Z,17.51
2022-11-05T11:18:54.154Z,17.42
2022-11-05T11:21:23.388Z,17.46
2022-11-05T11:24:07.047Z,17.41
2022-11-05T11:26:40.034Z,17.55
2022-11-05T11:29:16.551Z,17.61
2022-11-05T11:31:44.127Z,17.71
2022-11-05T11:34:24.511Z,17.75
2022-11-05T11:36:56.607Z,17.78
2022-11-05T11:39:27.460Z,17.76
2022-11-05T11:41:58.539Z,17.87
2022-11-05T11:44:30.977Z,17.93
2022-11-05T11:47:05.206Z,17.93
2022-11-05T11:49:46.365Z,18.09
2022-11-05T11:52:24.343Z,18.14
2022-11-05T11:54:53.108Z,18.17
2022-11-05T11:57:29.720Z,18.07
2022-11-05T12:00:14.685Z,18.05
2022-11-05T12:02:48.039Z,18.11
2022-11-05T12:05:53.156Z,18.04
2022-11-05T12:08:47.629Z,18.04
2022-11-05T12:11:24.176Z,17.94
2022-11-05T12:14:02.373Z,17.72
2022-11-05T12:17:09.423Z,17.97
2022-11-05T12:19:58.691Z,17.94
2022-11-05T12:22:41.126Z,17.83
2022-11-05T12:25:23.442Z,17.77
2022-11-05T12:28:12.052Z,17.74
2022-11-05T12:30:58.017Z,17.70
2022-11-05T12:33:37.458Z,17.62
2022-11-05T12:36:35.471Z,17.53
2022-11-05T12:39:02.954Z,17.62
2022-11-05T12:41:44.295Z,17.59
2022-11-05T12:44:36.933Z,17.70
2022-11-05T12:47:10.412Z,17.55
2022-11-05T12:49:50.128Z,17.27
2022-11-05T12:52:37.573Z,17.21
2022-11-05T12:55:11.958Z,17.20
2022-11-05T12:57:46.126Z,17.00
2022-11-05T13:00:28.273Z,17.12
2022-11-05T13:03:07.371Z,17.02
2022-11-05T13:05:39.346Z,17.22
2022-11-05T13:08:12.425Z,17.32
2022-11-05T13:11:03.595Z,17.39
2022-11-05T13:13:40.901Z,17.51
2022-11-05T13:16:14.137Z,17.55
2022-11-05T13:18:41.437Z,17.62
2022-11-05T13:21:10.817Z,17.69
2022-11-05T13:23:49.955Z,17.76
2022-11-05T13:26:24.371Z,17.74
2022-11-05T13:28:59.585Z,17.84
2022-11-05T13:31:36.613Z,17.85
2022-11-05T13:34:11.087Z,17.81
2022-11-05T13:37:09.559Z,17.88
2022-11-05T13:39:44.538Z,17.89
2022-11-05T13:42:36.497Z,17.91
2022-11-05T13:45:45.555Z,17.89
2022-11-05T13:48:35.518Z,17.91
2022-11-05T13:51:33.540Z,17.90
2022-11-05T13:54:41.058Z,17.88
2022-11-05T13:57:08.346Z,17.83
2022-11-05T13:59:41.778Z,17.87
2022-11-05T14:02:22.744Z,17.87
2022-11-05T14:05:01.224Z,17.83
2022-11-05T14:07:32.217Z,17.88
2022-11-05T14:10:10.462Z,17.82
2022-11-05T14:12:40.370Z,17.83
2022-11-05T14:15:29.783Z,17.80
2022-11-05T14:18:06.201Z,17.78
2022-11-05T14:20:33.319Z,17.79
2022-11-05T14:23:40.590Z,17.63
2022-11-05T14:26:15.857Z,17.73
2022-11-05T14:28:48.861Z,17.69
2022-11-05T14:31:19.214Z,17.70
2022-11-05T14:33:55.732Z,17.67
2022-11-05T14:36:28.349Z,17.63
2022-11-05T14:39:04.290Z,17.59
2022-11-05T14:41:31.966Z,17.55
2022-11-05T14:44:07.337Z,17.53
2022-11-05T14:46:43.696Z,17.47
2022-11-05T14:49:25.544Z,17.45
2022-11-05T14:51:58.742Z,17.43
2022-11-05T14:54:45.438Z,17.25
2022-11-05T14:57:33.500Z,17.37
2022-11-05T15:00:01.266Z,17.21
2022-11-05T15:02:37.479Z,17.26
2022-11-05T15:05:30.994Z,17.21
2022-11-05T15:07:59.703Z,17.15
2022-11-05T15:10:32.191Z,17.07
2022-11-05T15:13:05.081Z,17.02
2022-11-05T15:15:41.823Z,17.10
2022-11-05T15:18:34.420Z,17.08
2022-11-05T15:21:05.201Z,17.08
2022-11-05T15:23:41.361Z,17.00
2022-11-05T15:26:28.379Z,17.02
2022-11-05T15:28:56.750Z,17.01
2022-11-05T15:31:37.000Z,16.98
2022-11-05T15:34:10.589Z,16.86
2022-11-05T15:36:37.676Z,16.78
2022-11-05T15:39:29.287Z,16.58
2022-11-05T15:41:59.379Z,16.65
2022-11-05T15:44:31.616Z,16.67
2022-11-05T15:47:07.505Z,16.61
2022-11-05T15:49:35.045Z,16.55
2022-11-05T15:52:02.285Z,16.53
2022-11-05T15:54:30.798Z,16.33
2022-11-05T15:56:59.669Z,16.41
2022-11-05T15:59:29.797Z,16.35
2022-11-05T16:02:05.467Z,16.31
2022-11-05T16:04:35.197Z,16.27
2022-11-05T16:07:10.262Z,16.06
2022-11-05T16:09:40.633Z,16.06
2022-11-05T16:12:12.268Z,16.06
2022-11-05T16:14:40.286Z,16.08
2022-11-05T16:17:22.954Z,15.95
2022-11-05T16:19:51.022Z,16.03
2022-11-05T16:22:18.867Z,15.99
2022-11-05T16:24:47.228Z,15.87
2022-11-05T16:27:21.185Z,15.98
2022-11-05T16:29:51.544Z,16.02
2022-11-05T16:32:31.087Z,16.00
2022-11-05T16:35:04.721Z,16.00
2022-11-05T16:37:41.250Z,16.00
2022-11-05T16:40:20.274Z,15.95
2022-11-05T16:42:48.638Z,15.86
2022-11-05T16:45:17.435Z,15.88
2022-11-05T16:47:45.470Z,15.85
2022-11-05T16:50:26.194Z,15.76
2022-11-05T16:52:53.748Z,15.84
2022-11-05T16:55:21.223Z,15.70
2022-11-05T16:57:54.832Z,15.74
2022-11-05T17:00:23.262Z,15.65
2022-11-05T17:02:50.610Z,15.69
2022-11-05T17:05:21.906Z,15.70
2022-11-05T17:07:49.130Z,15.57
2022-11-05T17:10:16.495Z,15.55
2022-11-05T17:12:44.244Z,15.44
2022-11-05T17:15:18.493Z,15.24
2022-11-05T17:17:46.255Z,15.32
2022-11-05T17:20:26.762Z,15.15
2022-11-05T17:22:55.085Z,15.07
2022-11-05T17:25:22.406Z,15.06
2022-11-05T17:27:50.347Z,15.00
2022-11-05T17:30:18.059Z,14.98
2022-11-05T17:32:45.342Z,15.02
2022-11-05T17:35:12.970Z,14.96
2022-11-05T17:37:40.459Z,14.93
2022-11-05T17:40:10.495Z,14.84
2022-11-05T17:42:37.605Z,14.77
2022-11-05T17:45:05.417Z,14.80
2022-11-05T17:47:32.701Z,14.79
2022-11-05T17:49:59.879Z,14.79
2022-11-05T17:52:28.384Z,14.71
2022-11-05T17:54:55.530Z,14.55
2022-11-05T17:57:22.860Z,14.77
2022-11-05T17:59:49.969Z,14.77
2022-11-05T18:02:17.392Z,14.67
2022-11-05T18:04:44.848Z,14.67
2022-11-05T18:07:12.198Z,14.64
2022-11-05T18:09:39.386Z,14.63
2022-11-05T18:12:06.942Z,14.62
2022-11-05T18:14:34.423Z,14.58
2022-11-05T18:17:01.673Z,14.51
2022-11-05T18:19:29.638Z,14.46
2022-11-05T18:21:57.043Z,14.51
2022-11-05T18:24:24.299Z,14.44
2022-11-05T18:26:51.463Z,14.50
2022-11-05T18:29:18.726Z,14.51
2022-11-05T18:31:46.024Z,14.37
2022-11-05T18:34:13.313Z,14.20
2022-11-05T18:36:40.632Z,14.30
2022-11-05T18:39:08.678Z,14.32
2022-11-05T18:41:35.796Z,14.25
2022-11-05T18:44:04.501Z,14.25
2022-11-05T18:49:20.385Z,14.20
2022-11-05T18:51:47.538Z,14.20
2022-11-05T18:54:15.018Z,14.22
2022-11-05T18:56:45.587Z,14.15
2022-11-05T18:59:35.888Z,14.15
2022-11-05T19:02:02.194Z,14.03
2022-11-05T19:04:30.678Z,14.05
2022-11-05T19:07:01.668Z,13.88
2022-11-05T19:09:32.201Z,13.95
2022-11-05T19:11:59.522Z,13.91
2022-11-05T19:14:26.902Z,13.86
2022-11-05T19:16:54.223Z,13.93
2022-11-05T19:19:21.788Z,13.93
2022-11-05T19:21:50.618Z,13.94
2022-11-05T19:24:17.804Z,13.88
2022-11-05T19:26:45.206Z,13.80
2022-11-05T19:29:12.667Z,13.74
2022-11-05T19:31:40.027Z,13.66
2022-11-05T19:34:07.315Z,13.44
2022-11-05T19:36:34.771Z,13.40
2022-11-05T19:39:06.551Z,13.38
2022-11-05T19:41:33.854Z,13.36
2022-11-05T19:44:04.361Z,13.37
2022-11-05T19:46:32.225Z,13.33
2022-11-05T19:49:03.555Z,13.25
2022-11-05T19:51:32.110Z,13.12
2022-11-05T19:54:01.524Z,13.21
2022-11-05T19:56:31.259Z,13.22
2022-11-05T19:58:59.376Z,13.30
2022-11-05T20:01:28.429Z,13.25
2022-11-05T20:03:58.136Z,13.40
2022-11-05T20:06:38.949Z,13.37
2022-11-05T20:09:27.135Z,13.49
2022-11-05T20:11:56.647Z,13.51
2022-11-05T20:14:25.910Z,13.52
2022-11-05T20:16:53.855Z,13.62
2022-11-05T20:19:22.445Z,13.67
2022-11-05T20:21:50.024Z,13.67
2022-11-05T20:24:24.078Z,13.64
2022-11-05T20:26:56.722Z,13.68
2022-11-05T20:29:30.632Z,13.63
2022-11-05T20:32:02.950Z,13.60
2022-11-05T20:34:31.132Z,13.54
2022-11-05T20:36:58.508Z,13.43
2022-11-05T20:39:26.499Z,13.65
2022-11-05T20:41:53.632Z,13.66
2022-11-05T20:44:21.039Z,13.65
2022-11-05T20:46:48.373Z,13.62
2022-11-05T20:49:16.627Z,13.61
2022-11-05T20:51:46.269Z,13.53
2022-11-05T20:54:13.320Z,13.61
2022-11-05T20:56:42.023Z,13.64
2022-11-05T20:59:09.287Z,13.68
2022-11-05T21:01:36.788Z,13.67
2022-11-05T21:04:04.368Z,13.72
2022-11-05T21:06:33.889Z,13.80
2022-11-05T21:09:01.774Z,13.81
2022-11-05T21:11:29.182Z,13.80
2022-11-05T21:13:56.247Z,13.68
2022-11-05T21:16:23.351Z,13.91
2022-11-05T21:18:50.750Z,13.86
2022-11-05T21:21:20.663Z,13.96
2022-11-05T21:23:48.539Z,14.01
2022-11-05T21:26:18.960Z,14.03
2022-11-05T21:28:46.184Z,13.89
2022-11-05T21:31:13.479Z,13.94
2022-11-05T21:33:41.062Z,13.96
2022-11-05T21:36:12.991Z,13.99
2022-11-05T21:38:41.235Z,13.97
2022-11-05T21:41:10.492Z,13.98
2022-11-05T21:43:38.635Z,13.98
2022-11-05T21:46:06.001Z,14.06
2022-11-05T21:48:34.317Z,14.07
2022-11-05T21:51:20.088Z,14.01
2022-11-05T21:54:05.675Z,14.07
2022-11-05T21:56:52.261Z,13.99
2022-11-05T21:59:41.022Z,13.99
2022-11-05T22:02:11.691Z,14.02
2022-11-05T22:04:41.406Z,14.08
2022-11-05T22:07:11.163Z,14.16
2022-11-05T22:09:38.590Z,14.19
2022-11-05T22:12:06.220Z,14.12
2022-11-05T22:14:34.454Z,14.27
2022-11-05T22:17:02.850Z,14.28
2022-11-05T22:19:31.044Z,14.26
2022-11-05T22:21:58.287Z,14.34
2022-11-05T22:24:25.715Z,14.36
2022-11-05T22:26:53.419Z,14.40
2022-11-05T22:29:20.643Z,14.40
2022-11-05T22:31:47.919Z,14.41
2022-11-05T22:34:15.023Z,14.46
2022-11-05T22:36:42.498Z,14.54
2022-11-05T22:39:12.022Z,14.56
2022-11-05T22:41:39.838Z,14.58
2022-11-05T22:44:07.182Z,14.62
2022-11-05T22:46:34.714Z,14.64
2022-11-05T22:49:02.163Z,14.78
2022-11-05T22:51:31.990Z,14.78
2022-11-05T22:54:00.529Z,14.84
2022-11-05T22:56:33.998Z,14.70
2022-11-05T22:59:01.386Z,14.92
2022-11-05T23:01:29.985Z,14.90
2022-11-05T23:03:58.950Z,14.98
2022-11-05T23:06:47.377Z,15.01
2022-11-05T23:09:41.910Z,15.08
2022-11-05T23:12:24.809Z,15.13
2022-11-05T23:14:53.394Z,15.15
2022-11-05T23:17:39.542Z,15.20
2022-11-05T23:20:30.031Z,15.32
2022-11-05T23:23:16.730Z,15.36
2022-11-05T23:25:44.599Z,15.34
2022-11-05T23:28:12.901Z,15.44
2022-11-05T23:31:03.954Z,15.48
2022-11-05T23:33:34.133Z,15.54
2022-11-05T23:36:20.464Z,15.47
2022-11-05T23:38:47.751Z,15.54
2022-11-05T23:41:33.577Z,15.54
2022-11-05T23:44:19.358Z,15.60
2022-11-05T23:47:04.878Z,15.58
2022-11-05T23:49:32.360Z,15.53
2022-11-05T23:51:59.505Z,15.55
2022-11-05T23:54:26.771Z,15.52
2022-11-05T23:56:54.150Z,15.54
2022-11-05T23:59:21.561Z,15.52
